Price, UT

11:34 PM MDT on July 31, 2014 (GMT -0600)
Carbon County (KPUC) Elev 5955 ft | 39.61 °N, 110.75 °W | Change Station

Current weather conditions updated 41 minutes ago

Clear
Clear
64 °F
Feels Like 64 °F
N
4
Wind Variable Wind from North

Tomorrow is forecast to be Cooler than today.

Today
High -- | Low -- °F
--% Chance of Precip.
Yesterday
High -- | Low -- °F
Precip. -- in
6:22 AM 8:36 PM
Waxing Crescent, 23% visible
Pressure 30.23 in
Visibility 10.0 miles
Clouds Clear
Dew Point 55 °F
Humidity 73%
Rainfall 0.09 in
Snow Depth Not available.
UV 0 out of 12
Pollen 6.50 out of 12
Air Quality Not available.
Flu Activity Not available.
METAR KPUC 010453Z AUTO 35003KT 10SM CLR 18/13 A3023

More Conditions Fewer Conditions

Pressure 30.23 in
Visibility 10.0 miles
Clouds Clear
Dew Point 55 °F
Humidity 73%
Rainfall 0.09 in
Snow Depth Not available.
UV 0 out of 12
Pollen 6.50 out of 12
Air Quality Not available.
Flu Activity Not available.
METAR KPUC 010453Z AUTO 35003KT 10SM CLR 18/13 A3023

More Conditions Fewer Conditions

10-Day Weather Forecast

Almanac

Astronomy

Jul. 31, 2014 Rise Set
Actual Time 6:22 AM MDT 8:36 PM MDT
Civil Twilight 5:52 AM MDT 9:06 PM MDT
Nautical Twilight 5:15 AM MDT 9:43 PM MDT
Astronomical Twilight 4:35 AM MDT 10:23 PM MDT
Moon 10:51 AM MDT (7/31) 10:53 PM MDT (7/31)
Length of Visible Light 15h 14m
Length of Day
14h 14m
Tomorrow will be 1m 55s shorter.
Waxing Crescent, 23% of the Moon is Illuminated
Aug 1
Waxing Crescent
Aug 3
First Quarter
Aug 10
Full
Aug 17
Last Quarter
Aug 25
New

Yesterday's Extremes

State Highs State Lows

Community

WunderPhotos

Upload Photos

1,739,516 photos uploaded!

Nearby

Snow Depth

Station Depth Elevation
Payson R.S. 0 in 8050 ft
Gooseberry R.S. 0 in 7920 ft
Black Flat-U.M. Creek 0 in 9400 ft
Cascade Mountain 0 in 7768 ft
Box Creek 0 in 9800 ft

Earthquake Activity

City Distance Mag. Time & Date
No recent earthquake activity has been reported nearby.
Minimum magnitude displayed is 2.5.

Coastal Water Temperatures

Place Temperature
No Stations Reporting

Nearby Weather Stations

Station Location Temp. Dew Point Humidity Wind Precip. Elev Updated Type
MesoWest PRICE , Wellington, UT 64 °F 56 °F 74% NE  at  2 mph 0.00 in / hr 5646 ft 10:00 PM MDT MADIS
MesoWest MOUNDS , Wellington, UT 69 °F - - North  at  - 0.00 in / hr 5383 ft 8:50 PM MDT MADIS
MesoWest Price , Wellington, UT 69 °F 56 °F 62% SE  at  4 mph 0.00 in / hr 5688 ft 7:45 PM MDT MADIS
MesoWest SPGLEN , Scofield, UT 71 °F - - North  at  - 0.00 in / hr 5728 ft 10:25 PM MDT MADIS

Show More Stations Show Fewer Stations